Time;durP1;ratioP1;P1;durP2;ratioP2;P2;SDS_P1;SDS_P2;PMS_P1;PMS_P2;Temp;Humidity;BMP_temperature;BMP_pressure;BME280_temperature;BME280_humidity;BME280_pressure;Samples;Min_cycle;Max_cycle;Signal;HPM_P1;HPM_P2
2023/04/17 00:00:15;;;;;;;12.35;9.13;;;;;;;13.69;59.11;101933.59;5006670;28;99352;-71
2023/04/17 00:02:41;;;;;;;13.70;9.25;;;;;;;13.75;58.41;101934.28;5015187;27;102154;-71
2023/04/17 00:05:09;;;;;;;16.80;9.80;;;;;;;13.85;58.16;101940.16;5006756;28;98966;-71
2023/04/17 00:07:38;;;;;;;17.20;10.35;;;;;;;13.79;57.89;101935.91;5012839;28;97197;-71
2023/04/17 00:10:07;;;;;;;13.95;9.45;;;;;;;13.77;58.39;101940.41;5009066;28;97917;-70
2023/04/17 00:12:33;;;;;;;16.58;9.82;;;;;;;13.70;58.02;101944.16;5006789;28;100492;-72
2023/04/17 00:15:00;;;;;;;14.50;9.27;;;;;;;13.80;57.87;101942.97;5016776;28;96919;-71
2023/04/17 00:17:27;;;;;;;13.63;9.45;;;;;;;13.71;57.80;101934.41;5011396;28;97002;-70
2023/04/17 00:19:54;;;;;;;18.33;10.63;;;;;;;13.83;57.83;101934.06;5005711;28;101123;-71
2023/04/17 00:22:20;;;;;;;14.43;9.52;;;;;;;13.89;57.69;101936.50;5009209;28;99000;-69
2023/04/17 00:24:47;;;;;;;16.33;9.52;;;;;;;13.76;57.47;101933.38;5005022;28;97718;-69
2023/04/17 00:27:13;;;;;;;15.73;9.68;;;;;;;13.75;57.65;101941.38;5000442;28;96965;-69
2023/04/17 00:29:39;;;;;;;18.58;10.68;;;;;;;13.88;57.23;101940.09;5006067;28;98911;-70
2023/04/17 00:32:06;;;;;;;13.20;9.38;;;;;;;13.75;57.23;101939.59;5009597;28;98889;-70
2023/04/17 00:34:34;;;;;;;20.42;9.50;;;;;;;13.67;57.07;101938.06;5009467;28;98351;-70
2023/04/17 00:37:00;;;;;;;17.48;10.10;;;;;;;13.63;57.56;101942.59;5010782;28;97294;-70
2023/04/17 00:39:26;;;;;;;17.55;9.95;;;;;;;13.70;57.27;101936.19;5008548;28;99260;-70
2023/04/17 00:41:53;;;;;;;19.48;10.70;;;;;;;13.73;57.12;101943.19;5010369;28;98865;-71
2023/04/17 00:44:19;;;;;;;17.02;9.98;;;;;;;13.72;57.10;101938.81;5010299;28;97006;-68
2023/04/17 00:46:46;;;;;;;15.30;9.18;;;;;;;13.69;56.89;101944.22;5012884;28;98288;-69
2023/04/17 00:49:13;;;;;;;20.40;10.38;;;;;;;13.60;57.12;101940.03;5011644;28;99956;-70
2023/04/17 00:51:41;;;;;;;14.65;9.38;;;;;;;13.55;57.10;101941.94;5012271;28;99007;-70
2023/04/17 00:54:13;;;;;;;14.55;9.82;;;;;;;13.55;57.17;101941.94;5012088;28;96814;-70
2023/04/17 00:56:41;;;;;;;15.48;9.93;;;;;;;13.73;57.00;101943.19;4997393;28;96602;-69
2023/04/17 00:59:11;;;;;;;15.70;9.70;;;;;;;13.54;57.14;101949.03;5009439;28;102206;-69
2023/04/17 01:01:38;;;;;;;18.00;10.73;;;;;;;13.40;56.91;101939.72;5014304;28;98956;-69
2023/04/17 01:04:05;;;;;;;16.83;10.27;;;;;;;13.34;57.13;101946.09;5008794;28;96956;-70
2023/04/17 01:06:32;;;;;;;13.25;9.15;;;;;;;13.43;56.88;101942.31;5016637;28;97210;-69
2023/04/17 01:08:59;;;;;;;17.05;10.60;;;;;;;13.36;56.94;101944.25;5022762;28;98509;-69
2023/04/17 01:11:27;;;;;;;17.90;10.15;;;;;;;13.37;56.92;101946.00;5013846;28;98906;-70
2023/04/17 01:13:53;;;;;;;17.23;10.88;;;;;;;13.42;56.76;101943.22;5005109;28;96765;-71
2023/04/17 01:16:20;;;;;;;18.35;10.18;;;;;;;13.43;56.99;101944.97;5005461;28;96844;-70
2023/04/17 01:18:47;;;;;;;16.88;9.57;;;;;;;13.35;56.37;101944.31;5013262;28;98945;-69
2023/04/17 01:21:13;;;;;;;14.23;10.20;;;;;;;13.35;56.41;101944.31;5014546;28;100577;-69
2023/04/17 01:23:44;;;;;;;20.83;10.57;;;;;;;13.33;56.20;101946.13;5010551;27;96867;-70
2023/04/17 01:26:17;;;;;;;17.13;11.93;;;;;;;13.30;56.09;101940.91;5008376;28;96899;-69
2023/04/17 01:28:43;;;;;;;20.20;11.05;;;;;;;13.37;56.63;101943.34;5005515;27;99371;-70
2023/04/17 01:31:14;;;;;;;16.75;10.38;;;;;;;13.32;56.39;101944.41;5007003;28;98924;-70
2023/04/17 01:33:41;;;;;;;19.80;10.43;;;;;;;13.26;56.51;101947.22;5004559;28;96756;-70
2023/04/17 01:36:08;;;;;;;20.67;10.73;;;;;;;13.19;56.77;101943.00;5012172;28;96988;-70
2023/04/17 01:38:34;;;;;;;22.90;11.10;;;;;;;13.38;56.43;101942.44;5018345;28;99452;-69
2023/04/17 01:41:08;;;;;;;19.85;11.02;;;;;;;13.37;56.27;101943.34;5013741;28;98918;-70
2023/04/17 01:43:37;;;;;;;21.48;11.20;;;;;;;13.48;56.10;101951.00;5011032;28;97612;-69
2023/04/17 01:46:03;;;;;;;18.13;11.05;;;;;;;12.98;56.44;101937.31;5011686;28;97273;-70
2023/04/17 01:48:29;;;;;;;16.42;10.85;;;;;;;13.26;56.56;101948.06;5009650;28;99196;-71
2023/04/17 01:50:56;;;;;;;16.77;10.75;;;;;;;13.21;56.52;101947.34;5016375;28;98847;-70
2023/04/17 01:53:22;;;;;;;16.23;10.45;;;;;;;13.19;56.63;101940.34;5012949;28;97642;-71
2023/04/17 01:55:49;;;;;;;20.25;10.95;;;;;;;13.19;56.64;101943.00;5004391;28;97255;-70
2023/04/17 01:58:15;;;;;;;18.58;10.95;;;;;;;13.18;56.62;101946.56;5007582;28;99168;-69
2023/04/17 02:00:45;;;;;;;17.05;10.88;;;;;;;13.12;56.94;101947.56;5014313;28;97473;-71
2023/04/17 02:03:12;;;;;;;19.33;11.75;;;;;;;13.12;57.12;101944.91;5010462;28;96895;-71
2023/04/17 02:05:38;;;;;;;16.80;10.77;;;;;;;13.12;56.36;101945.81;5006727;28;96937;-70
2023/04/17 02:08:05;;;;;;;22.50;11.27;;;;;;;13.11;56.34;101944.03;5009222;28;99319;-70
2023/04/17 02:10:31;;;;;;;17.42;10.38;;;;;;;12.78;56.82;101947.56;5015164;28;99250;-69
2023/04/17 02:12:58;;;;;;;16.95;10.40;;;;;;;12.81;57.05;101952.78;5010725;28;97801;-69
2023/04/17 02:15:24;;;;;;;17.52;10.55;;;;;;;12.78;57.08;101955.53;5008137;28;96912;-69
2023/04/17 02:17:52;;;;;;;17.67;10.27;;;;;;;12.92;56.57;101960.50;5005818;28;98071;-69
2023/04/17 02:20:18;;;;;;;16.13;10.73;;;;;;;12.85;56.48;101954.47;5009021;28;99062;-70
2023/04/17 02:22:45;;;;;;;19.35;11.73;;;;;;;12.98;56.40;101966.50;5007885;28;96826;-69
2023/04/17 02:25:11;;;;;;;23.88;11.05;;;;;;;12.75;56.52;101963.56;5003968;28;96897;-71
2023/04/17 02:27:38;;;;;;;20.08;11.30;;;;;;;12.77;56.49;101962.63;5007552;28;99324;-69
2023/04/17 02:30:05;;;;;;;18.50;10.60;;;;;;;12.72;56.54;101961.88;5011574;28;99234;-71
2023/04/17 02:32:32;;;;;;;16.15;10.82;;;;;;;12.68;56.97;101956.66;5008283;28;97277;-70
2023/04/17 02:34:59;;;;;;;19.88;10.48;;;;;;;12.90;56.53;101965.81;5017336;28;97113;-70
2023/04/17 02:37:26;;;;;;;22.17;11.05;;;;;;;12.84;56.55;101966.00;5003211;28;101107;-70
2023/04/17 02:39:54;;;;;;;16.80;9.93;;;;;;;12.79;56.33;101965.25;5002627;28;97524;-70
2023/04/17 02:42:20;;;;;;;19.50;11.68;;;;;;;12.64;56.62;101965.63;5008837;28;97906;-69
2023/04/17 02:44:47;;;;;;;16.88;10.98;;;;;;;12.69;56.71;101972.53;5016824;28;97067;-69
2023/04/17 02:47:13;;;;;;;22.33;11.02;;;;;;;12.72;56.29;101958.34;5010799;28;97659;-68
2023/04/17 02:49:41;;;;;;;16.77;10.75;;;;;;;12.71;56.70;101964.56;5008836;28;98805;-69
2023/04/17 02:52:08;;;;;;;23.75;11.90;;;;;;;12.50;56.50;101963.28;5019277;28;97202;-69
2023/04/17 02:54:35;;;;;;;19.55;12.15;;;;;;;12.49;56.86;101963.31;5011301;28;96926;-70
2023/04/17 02:57:02;;;;;;;18.75;11.27;;;;;;;12.28;57.25;101965.56;5008133;28;97694;-69
2023/04/17 02:59:28;;;;;;;18.42;11.70;;;;;;;12.35;57.51;101969.81;5016849;28;99222;-72
2023/04/17 03:01:58;;;;;;;20.55;10.30;;;;;;;12.49;56.99;101968.63;5017155;28;97216;-68
2023/04/17 03:04:26;;;;;;;18.58;11.27;;;;;;;12.42;57.04;101959.94;5017602;28;96797;-69
2023/04/17 03:06:52;;;;;;;25.60;12.32;;;;;;;12.55;57.07;101972.00;5011763;28;98207;-70
2023/04/17 03:09:21;;;;;;;18.27;10.88;;;;;;;12.59;56.35;101972.81;5006838;28;99064;-70
2023/04/17 03:11:48;;;;;;;17.65;11.30;;;;;;;12.63;56.61;101969.16;5004669;28;96762;-70
2023/04/17 03:14:14;;;;;;;21.88;11.80;;;;;;;12.59;56.51;101978.13;5007984;28;97487;-70
2023/04/17 03:16:41;;;;;;;18.98;12.02;;;;;;;12.56;56.47;101976.41;5004660;28;97989;-70
2023/04/17 03:19:08;;;;;;;20.73;11.52;;;;;;;12.48;56.82;101981.00;5005831;28;98998;-71
2023/04/17 03:21:34;;;;;;;21.27;11.35;;;;;;;12.49;56.61;101981.88;5006958;28;97333;-70
2023/04/17 03:24:01;;;;;;;21.17;11.55;;;;;;;12.44;56.77;101995.25;5008817;28;98358;-70
2023/04/17 03:26:28;;;;;;;21.90;12.18;;;;;;;12.46;56.81;101988.16;5001732;28;97795;-69
2023/04/17 03:28:55;;;;;;;19.20;12.30;;;;;;;12.48;56.76;101990.75;4997076;28;98797;-71
2023/04/17 03:31:22;;;;;;;22.58;12.23;;;;;;;12.52;56.63;101989.78;5005554;28;100824;-69
2023/04/17 03:33:49;;;;;;;15.98;10.73;;;;;;;12.42;56.75;101994.41;5010814;28;97290;-69
2023/04/17 03:36:16;;;;;;;22.30;12.70;;;;;;;12.37;56.87;102002.47;5009070;28;99244;-70
2023/04/17 03:38:43;;;;;;;19.33;11.88;;;;;;;12.40;57.21;101998.91;5007575;28;99157;-69
2023/04/17 03:41:10;;;;;;;20.83;12.52;;;;;;;12.50;57.06;102004.84;5000179;28;97265;-69
2023/04/17 03:43:37;;;;;;;21.92;12.65;;;;;;;12.25;57.43;102000.13;5015890;28;97125;-71
2023/04/17 03:46:04;;;;;;;23.58;12.82;;;;;;;12.29;56.88;102003.56;5011212;28;98923;-70
2023/04/17 03:48:31;;;;;;;23.15;12.98;;;;;;;12.25;57.12;102009.84;5016160;28;99213;-70
2023/04/17 03:50:57;;;;;;;24.90;13.40;;;;;;;12.10;57.60;102003.09;5004716;28;96882;-69
2023/04/17 03:53:24;;;;;;;24.15;13.65;;;;;;;12.06;57.73;102009.38;5011558;28;97690;-69
2023/04/17 03:55:50;;;;;;;25.23;13.75;;;;;;;12.19;57.75;102010.84;5013457;28;99090;-71
2023/04/17 03:58:16;;;;;;;26.70;13.65;;;;;;;12.24;57.55;102010.75;5011089;28;99088;-70
2023/04/17 04:00:45;;;;;;;29.27;14.60;;;;;;;12.09;57.62;102014.59;5000323;28;98979;-70
2023/04/17 04:03:11;;;;;;;22.15;13.27;;;;;;;12.19;57.62;102009.97;5007452;28;97058;-70
2023/04/17 04:05:38;;;;;;;25.02;13.82;;;;;;;12.13;57.78;102020.72;5002389;28;99399;-70
2023/04/17 04:08:04;;;;;;;23.95;12.73;;;;;;;12.05;58.00;102026.16;5001014;28;97625;-71
2023/04/17 04:10:31;;;;;;;30.25;13.65;;;;;;;11.98;58.12;102025.44;5009324;28;97036;-71
2023/04/17 04:12:57;;;;;;;22.92;14.48;;;;;;;12.16;57.92;102029.44;5013098;28;96804;-70
2023/04/17 04:15:26;;;;;;;22.38;13.82;;;;;;;12.19;57.42;102032.06;5010794;28;101505;-70
2023/04/17 04:17:53;;;;;;;25.83;13.85;;;;;;;12.15;57.86;102033.00;5011957;28;101581;-70
2023/04/17 04:20:21;;;;;;;28.38;14.45;;;;;;;12.21;57.82;102032.88;5008343;28;99004;-70
2023/04/17 04:22:47;;;;;;;28.05;14.05;;;;;;;12.13;57.89;102032.19;5003265;28;99325;-69
2023/04/17 04:25:14;;;;;;;27.95;15.30;;;;;;;12.11;58.05;102038.41;5005173;28;99310;-70
2023/04/17 04:27:48;;;;;;;26.40;13.18;;;;;;;12.25;57.97;102041.63;5009208;28;99212;-69
2023/04/17 04:30:18;;;;;;;21.60;14.00;;;;;;;12.08;57.85;102042.00;5004487;28;96889;-70
2023/04/17 04:32:45;;;;;;;32.45;14.45;;;;;;;11.98;58.50;102038.69;5011959;28;96907;-70
2023/04/17 04:35:13;;;;;;;24.85;14.82;;;;;;;12.12;58.09;102035.75;5012373;28;101126;-70
2023/04/17 04:37:41;;;;;;;23.83;14.65;;;;;;;12.14;58.02;102038.38;5008019;28;101141;-69
2023/04/17 04:40:09;;;;;;;29.17;15.30;;;;;;;12.20;57.91;102033.81;5008071;28;96881;-69
2023/04/17 04:42:36;;;;;;;23.65;14.85;;;;;;;12.22;57.82;102039.91;5011199;28;97208;-70
2023/04/17 04:45:03;;;;;;;26.83;15.38;;;;;;;12.08;57.70;102033.19;5011759;28;99297;-71
2023/04/17 04:47:30;;;;;;;24.77;15.48;;;;;;;12.10;57.96;102042.84;5014705;28;99174;-71
2023/04/17 04:49:56;;;;;;;25.10;14.35;;;;;;;11.97;58.37;102036.06;5011221;28;97217;-70
2023/04/17 04:52:25;;;;;;;32.10;15.50;;;;;;;12.10;58.23;102045.50;5017716;28;97184;-69
2023/04/17 04:54:51;;;;;;;29.13;15.55;;;;;;;12.10;58.31;102040.19;5009845;28;99204;-71
2023/04/17 04:57:18;;;;;;;27.13;15.65;;;;;;;12.16;58.40;102048.00;5016928;28;99152;-68
2023/04/17 04:59:44;;;;;;;24.23;14.88;;;;;;;12.08;58.20;102047.28;5016761;28;99188;-72
2023/04/17 05:02:11;;;;;;;25.58;14.23;;;;;;;12.11;58.01;102046.38;5014215;28;97147;-72
2023/04/17 05:04:37;;;;;;;27.88;15.25;;;;;;;12.29;57.60;102045.97;5015472;28;101433;-69
2023/04/17 05:07:04;;;;;;;24.70;15.10;;;;;;;12.11;58.22;102049.88;5013279;28;100943;-70
2023/04/17 05:09:32;;;;;;;26.85;15.70;;;;;;;12.22;58.23;102057.59;5012575;28;96889;-69
2023/04/17 05:11:58;;;;;;;28.25;15.45;;;;;;;12.34;57.88;102058.19;5003833;28;97477;-68
2023/04/17 05:14:25;;;;;;;27.08;16.70;;;;;;;12.33;57.80;102056.47;5005994;28;98943;-70
2023/04/17 05:16:51;;;;;;;31.35;16.08;;;;;;;12.36;57.82;102061.69;5009800;28;99997;-71
2023/04/17 05:19:18;;;;;;;27.25;15.95;;;;;;;12.33;57.68;102067.09;5012287;28;96815;-71
2023/04/17 05:21:45;;;;;;;30.65;16.58;;;;;;;12.52;57.21;102069.31;4999436;28;97912;-70
2023/04/17 05:24:11;;;;;;;27.55;16.27;;;;;;;12.68;56.89;102074.22;4999699;28;101831;-70
2023/04/17 05:26:39;;;;;;;31.88;17.15;;;;;;;12.60;57.17;102077.97;5007194;28;98800;-70
2023/04/17 05:29:06;;;;;;;31.20;17.55;;;;;;;12.67;57.29;102082.19;5009667;28;97938;-70
2023/04/17 05:31:32;;;;;;;28.92;16.95;;;;;;;12.42;57.13;102081.00;5013423;28;97275;-69
2023/04/17 05:33:59;;;;;;;32.35;17.35;;;;;;;12.56;56.97;102079.81;5012379;28;102652;-70
2023/04/17 05:36:26;;;;;;;32.58;17.90;;;;;;;12.43;57.37;102082.75;5006630;28;98888;-70
2023/04/17 05:38:53;;;;;;;29.30;18.17;;;;;;;12.51;57.08;102086.13;5004640;28;98943;-70
2023/04/17 05:41:19;;;;;;;31.15;18.73;;;;;;;12.52;57.03;102079.94;5009330;28;97259;-71
2023/04/17 05:43:47;;;;;;;34.13;18.35;;;;;;;12.50;56.82;102092.31;5013702;28;99647;-71
2023/04/17 05:46:13;;;;;;;30.55;18.85;;;;;;;12.42;57.25;102091.63;5010800;28;98833;-71
2023/04/17 05:48:40;;;;;;;33.78;18.98;;;;;;;12.47;57.08;102097.72;5009790;28;96853;-69
2023/04/17 05:51:06;;;;;;;32.53;18.50;;;;;;;12.58;56.83;102093.03;5013461;28;96917;-70
2023/04/17 05:53:34;;;;;;;33.30;19.40;;;;;;;12.80;56.79;102098.72;5008558;28;97058;-69
2023/04/17 05:56:02;;;;;;;36.65;18.85;;;;;;;12.89;56.33;102101.16;5013392;28;99153;-71
2023/04/17 05:58:28;;;;;;;30.08;19.17;;;;;;;12.71;56.28;102095.38;5009210;28;97192;-72
2023/04/17 06:00:58;;;;;;;27.13;18.15;;;;;;;12.86;55.94;102099.47;5004796;28;97399;-71
2023/04/17 06:03:24;;;;;;;29.77;18.42;;;;;;;12.86;56.06;102099.47;5004554;28;99198;-73
2023/04/17 06:05:51;;;;;;;32.75;18.90;;;;;;;12.91;55.81;102108.19;4999629;28;98956;-71
2023/04/17 06:08:17;;;;;;;32.67;19.27;;;;;;;12.78;56.04;102098.75;4994871;28;99435;-71
2023/04/17 06:10:45;;;;;;;36.85;19.42;;;;;;;12.90;55.78;102102.91;5002766;28;98835;-71
2023/04/17 06:13:11;;;;;;;34.83;19.50;;;;;;;12.70;55.88;102100.72;4999277;28;99068;-70
2023/04/17 06:15:38;;;;;;;34.08;20.17;;;;;;;12.63;56.70;102101.75;5007028;28;98870;-72
2023/04/17 06:18:06;;;;;;;32.33;19.33;;;;;;;12.66;56.32;102112.31;5019430;28;96715;-73
2023/04/17 06:20:32;;;;;;;42.40;20.48;;;;;;;12.75;56.46;102110.31;5007870;28;97158;-69
2023/04/17 06:22:59;;;;;;;32.33;19.95;;;;;;;12.72;56.38;102112.16;5004585;28;99161;-71
2023/04/17 06:25:26;;;;;;;34.00;20.23;;;;;;;12.91;55.88;102116.13;5020286;28;99184;-71
2023/04/17 06:27:53;;;;;;;35.63;20.35;;;;;;;12.93;56.22;102116.94;5006288;28;98309;-72
2023/04/17 06:30:19;;;;;;;33.67;21.05;;;;;;;13.02;55.84;102119.41;5003311;28;100995;-72
2023/04/17 06:32:46;;;;;;;32.60;19.65;;;;;;;12.79;56.19;102119.09;5002243;28;99217;-70
2023/04/17 06:35:14;;;;;;;31.23;20.13;;;;;;;12.89;56.33;102125.03;4998294;28;99350;-70
2023/04/17 06:37:41;;;;;;;35.90;20.48;;;;;;;13.24;55.47;102126.88;5006550;28;97202;-72
2023/04/17 06:40:11;;;;;;;32.83;20.35;;;;;;;13.38;54.94;102122.97;5006264;28;96889;-70
2023/04/17 06:42:37;;;;;;;34.80;19.42;;;;;;;13.47;54.48;102120.06;5001841;28;99164;-70
2023/04/17 06:45:04;;;;;;;29.73;19.40;;;;;;;13.66;54.37;102119.59;5004942;28;99285;-72
2023/04/17 06:47:31;;;;;;;37.70;20.63;;;;;;;13.69;53.80;102119.53;5008878;28;97625;-72
2023/04/17 06:49:58;;;;;;;35.17;20.98;;;;;;;13.71;53.75;102123.88;5009676;28;98516;-71
2023/04/17 06:52:26;;;;;;;30.30;19.23;;;;;;;13.66;53.50;102120.47;5003310;28;98961;-72
2023/04/17 06:54:55;;;;;;;35.20;19.15;;;;;;;13.68;53.97;102126.63;5001195;28;98904;-73
2023/04/17 06:57:21;;;;;;;33.95;19.33;;;;;;;13.76;53.55;102123.75;4997389;28;98173;-71
2023/04/17 06:59:50;;;;;;;34.92;18.83;;;;;;;13.96;53.46;102132.94;5008021;28;97149;-70
2023/04/17 07:02:17;;;;;;;26.63;18.05;;;;;;;14.14;52.97;102128.00;5007128;28;97807;-71
2023/04/17 07:04:43;;;;;;;27.83;19.05;;;;;;;13.78;53.38;102128.13;5008655;28;99169;-71
2023/04/17 07:07:11;;;;;;;30.02;18.85;;;;;;;14.01;53.32;102126.59;5008249;28;97139;-71
2023/04/17 07:09:40;;;;;;;37.30;19.77;;;;;;;14.28;52.01;102134.69;5004803;28;97293;-72
2023/04/17 07:12:07;;;;;;;31.77;18.10;;;;;;;14.45;51.84;102142.19;5005901;28;99040;-71
2023/04/17 07:14:34;;;;;;;28.25;18.80;;;;;;;14.31;52.17;102147.00;5009668;28;99488;-71
2023/04/17 07:17:00;;;;;;;29.58;17.75;;;;;;;14.26;52.03;102148.91;5002047;28;97165;-72
2023/04/17 07:19:27;;;;;;;32.95;19.60;;;;;;;14.54;51.42;102152.56;5008980;28;96889;-71
2023/04/17 07:21:53;;;;;;;29.55;18.23;;;;;;;14.65;51.18;102152.22;5008834;28;98981;-72
2023/04/17 07:24:20;;;;;;;29.90;17.90;;;;;;;14.37;51.11;102152.16;5008237;28;99166;-71
2023/04/17 07:26:48;;;;;;;35.50;19.08;;;;;;;14.31;51.31;102154.97;5006463;28;97233;-71
2023/04/17 07:29:14;;;;;;;30.15;18.08;;;;;;;14.27;51.72;102156.00;4999780;28;97607;-72
2023/04/17 07:31:41;;;;;;;29.10;18.85;;;;;;;14.37;51.52;102154.81;5001709;28;99256;-74
2023/04/17 07:34:07;;;;;;;33.55;17.67;;;;;;;14.32;51.28;102162.03;4997631;28;97837;-71
2023/04/17 07:36:34;;;;;;;32.65;18.75;;;;;;;14.17;51.88;102168.69;5007537;28;97817;-70
2023/04/17 07:39:01;;;;;;;34.10;19.35;;;;;;;13.90;52.38;102172.09;5007191;28;96848;-71
2023/04/17 07:41:27;;;;;;;28.48;18.05;;;;;;;13.96;52.35;102179.91;5004449;28;99169;-71
2023/04/17 07:43:55;;;;;;;35.70;18.20;;;;;;;14.05;52.46;102181.41;5007787;28;99741;-71
2023/04/17 07:46:22;;;;;;;32.35;17.73;;;;;;;13.98;53.05;102170.94;5008157;28;96763;-71
2023/04/17 07:48:48;;;;;;;33.30;17.70;;;;;;;14.12;52.66;102180.34;5009906;28;97034;-72
2023/04/17 07:51:15;;;;;;;25.70;17.00;;;;;;;14.36;51.95;102183.19;5001945;28;98887;-72
2023/04/17 07:53:41;;;;;;;26.15;16.98;;;;;;;14.23;51.96;102180.94;5005576;28;99097;-70
2023/04/17 07:56:08;;;;;;;28.65;17.05;;;;;;;13.99;52.71;102182.44;5001331;28;97488;-71
2023/04/17 07:58:35;;;;;;;27.63;17.00;;;;;;;14.44;51.88;102188.31;5005562;28;97056;-72
2023/04/17 08:01:04;;;;;;;28.50;16.90;;;;;;;14.49;51.18;102189.06;5007022;28;98800;-71
2023/04/17 08:03:31;;;;;;;26.48;16.98;;;;;;;14.51;50.81;102189.00;4995022;28;100836;-71
2023/04/17 08:05:57;;;;;;;33.40;17.58;;;;;;;14.60;50.56;102192.28;5002055;28;96809;-71
2023/04/17 08:08:24;;;;;;;31.42;17.90;;;;;;;14.29;50.75;102186.06;5004793;28;96887;-72
2023/04/17 08:10:51;;;;;;;29.67;16.98;;;;;;;14.49;50.79;102188.19;5003445;28;99109;-73
2023/04/17 08:13:17;;;;;;;27.65;17.77;;;;;;;14.47;51.07;102187.34;5003054;28;101171;-70
2023/04/17 08:15:44;;;;;;;27.88;17.63;;;;;;;14.85;50.25;102191.53;4999824;28;97227;-72
2023/04/17 08:18:12;;;;;;;26.98;16.92;;;;;;;14.93;49.78;102200.16;5007421;28;96899;-72
2023/04/17 08:20:39;;;;;;;31.35;17.10;;;;;;;14.79;49.56;102194.38;5004573;28;102570;-71
2023/04/17 08:23:06;;;;;;;30.25;17.63;;;;;;;14.73;49.47;102198.97;4999103;28;98585;-71
2023/04/17 08:25:32;;;;;;;26.42;17.48;;;;;;;15.18;48.89;102200.28;4997345;28;97972;-71
2023/04/17 08:27:58;;;;;;;24.00;15.52;;;;;;;15.00;48.67;102207.06;4995820;28;97311;-71
2023/04/17 08:30:25;;;;;;;22.35;15.40;;;;;;;15.33;48.12;102210.44;5001938;28;100694;-71
2023/04/17 08:32:51;;;;;;;28.02;16.65;;;;;;;15.73;47.62;102207.38;5006302;28;98970;-71
2023/04/17 08:35:20;;;;;;;24.30;15.40;;;;;;;15.97;46.75;102209.19;5000315;28;97056;-72
2023/04/17 08:37:46;;;;;;;31.48;15.75;;;;;;;15.89;46.88;102208.59;5004138;28;97289;-72
2023/04/17 08:40:14;;;;;;;25.55;16.40;;;;;;;15.65;46.75;102212.09;5005158;28;99379;-72
2023/04/17 08:42:42;;;;;;;22.48;14.77;;;;;;;16.03;45.87;102208.09;4998010;28;98361;-72
2023/04/17 08:45:10;;;;;;;26.50;15.43;;;;;;;16.32;45.06;102207.94;4994836;28;101352;-72
2023/04/17 08:47:39;;;;;;;24.02;14.30;;;;;;;16.47;44.98;102204.72;5004120;28;99163;-71
2023/04/17 08:50:10;;;;;;;24.58;14.85;;;;;;;16.16;45.44;102210.28;4999063;28;98978;-71
2023/04/17 08:52:41;;;;;;;32.10;15.85;;;;;;;16.38;45.00;102204.19;4995864;28;99214;-72
2023/04/17 08:55:08;;;;;;;22.67;14.57;;;;;;;16.66;44.76;102212.97;5005971;28;97182;-71
2023/04/17 08:57:35;;;;;;;23.88;14.70;;;;;;;16.65;44.69;102219.22;5000653;28;96914;-72
2023/04/17 09:00:10;;;;;;;25.25;14.20;;;;;;;16.43;44.88;102220.88;4999494;28;99403;-71
2023/04/17 09:02:51;;;;;;;29.55;15.45;;;;;;;16.80;43.76;102215.97;5004859;28;98808;-72
2023/04/17 09:05:18;;;;;;;24.10;14.27;;;;;;;16.76;43.89;102217.00;5000001;28;97065;-72
2023/04/17 09:07:46;;;;;;;23.92;14.93;;;;;;;16.54;43.82;102218.72;5000554;28;96932;-70
2023/04/17 09:10:13;;;;;;;21.38;14.50;;;;;;;16.64;44.12;102217.47;5001156;28;100022;-71
2023/04/17 09:12:40;;;;;;;23.15;14.30;;;;;;;16.34;44.53;102214.97;5008377;28;98948;-72
2023/04/17 09:15:15;;;;;;;22.70;13.35;;;;;;;16.18;44.88;102216.44;4995608;28;99154;-72
2023/04/17 09:17:43;;;;;;;25.83;14.45;;;;;;;15.82;45.72;102217.72;4998122;28;96823;-71
2023/04/17 09:20:11;;;;;;;24.63;13.93;;;;;;;15.98;45.44;102218.94;5003385;28;101567;-71
2023/04/17 09:22:40;;;;;;;22.88;13.68;;;;;;;16.40;44.81;102221.03;5002381;28;98289;-71
2023/04/17 09:25:17;;;;;;;25.98;14.63;;;;;;;16.52;44.21;102218.78;5001981;28;96958;-72
2023/04/17 09:27:44;;;;;;;25.52;14.43;;;;;;;16.43;44.41;102224.44;5011981;27;97804;-73
2023/04/17 09:30:12;;;;;;;23.02;13.70;;;;;;;16.52;44.85;102217.91;5008658;28;99323;-72
2023/04/17 09:32:40;;;;;;;21.52;13.75;;;;;;;17.38;42.87;102227.03;5001543;28;98967;-72
2023/04/17 09:35:07;;;;;;;24.65;13.60;;;;;;;17.35;41.82;102205.78;5001348;28;96984;-72
2023/04/17 09:37:50;;;;;;;21.63;13.25;;;;;;;17.18;41.83;102218.94;5009536;28;97008;-71
2023/04/17 09:40:19;;;;;;;22.52;13.65;;;;;;;17.26;42.25;102220.41;5001019;28;99674;-73
2023/04/17 09:42:56;;;;;;;23.48;13.40;;;;;;;17.35;42.59;102221.81;4999263;28;102191;-71
2023/04/17 09:45:24;;;;;;;22.80;13.95;;;;;;;17.88;42.25;102217.81;5002962;28;96937;-71
2023/04/17 09:47:51;;;;;;;23.45;12.70;;;;;;;17.70;41.76;102221.28;5001601;28;97989;-71
2023/04/17 09:50:21;;;;;;;21.25;12.48;;;;;;;18.02;40.32;102211.88;5006846;28;99199;-71
2023/04/17 09:52:49;;;;;;;17.23;11.77;;;;;;;17.43;39.42;102215.22;5005315;28;98316;-72
2023/04/17 09:55:20;;;;;;;20.80;12.43;;;;;;;16.77;41.26;102224.09;5003689;28;97166;-71
2023/04/17 09:57:49;;;;;;;20.55;11.82;;;;;;;17.08;41.55;102229.97;5006136;28;96721;-71
2023/04/17 10:00:19;;;;;;;18.35;11.25;;;;;;;17.05;40.58;102218.56;5003153;28;99314;-71
2023/04/17 10:02:47;;;;;;;20.17;12.13;;;;;;;17.21;39.54;102227.69;5010782;28;99323;-71
2023/04/17 10:05:14;;;;;;;16.88;11.50;;;;;;;17.53;39.06;102221.03;5003536;28;97250;-71
2023/04/17 10:07:41;;;;;;;18.73;11.80;;;;;;;17.74;38.73;102220.19;4997509;28;96951;-71
2023/04/17 10:10:10;;;;;;;18.17;12.45;;;;;;;17.49;39.09;102220.31;5003990;28;98846;-71
2023/04/17 10:12:40;;;;;;;19.98;11.40;;;;;;;17.92;39.33;102219.41;5010333;28;99015;-72
2023/04/17 10:15:08;;;;;;;18.08;12.38;;;;;;;18.17;38.38;102213.88;5003805;28;96854;-72
2023/04/17 10:17:34;;;;;;;21.88;12.15;;;;;;;17.48;39.99;102213.22;5001356;28;98591;-72
2023/04/17 10:20:34;;;;;;;23.00;12.02;;;;;;;17.59;39.79;102217.28;4998614;28;98773;-71
2023/04/17 10:23:28;;;;;;;17.13;11.38;;;;;;;17.75;38.91;102207.69;5002978;28;99568;-71
2023/04/17 10:26:37;;;;;;;15.05;10.88;;;;;;;17.75;38.06;102208.56;4997833;28;97015;-72
2023/04/17 10:29:05;;;;;;;18.10;11.48;;;;;;;17.61;38.57;102212.75;5000485;28;97635;-71
2023/04/17 10:32:24;;;;;;;17.65;11.52;;;;;;;17.57;38.43;102219.13;4996303;28;99157;-71
2023/04/17 10:34:51;;;;;;;16.73;11.20;;;;;;;17.57;39.18;102212.00;5001172;28;99393;-73
2023/04/17 10:37:18;;;;;;;25.83;14.35;;;;;;;17.49;39.25;102214.09;4999216;28;97144;-70
2023/04/17 10:39:50;;;;;;;16.83;10.73;;;;;;;17.51;39.19;102213.13;4997058;28;96879;-74
2023/04/17 10:42:18;;;;;;;16.35;10.25;;;;;;;17.23;39.15;102211.63;5005650;28;100998;-71
2023/04/17 10:44:47;;;;;;;17.92;10.55;;;;;;;17.41;38.21;102205.53;4999281;28;101694;-71
2023/04/17 10:47:13;;;;;;;22.35;11.68;;;;;;;17.48;38.18;102207.00;5001063;28;98293;-71
2023/04/17 10:49:50;;;;;;;19.05;10.52;;;;;;;17.05;37.22;102214.09;5002983;28;96944;-72
2023/04/17 10:52:40;;;;;;;17.88;10.38;;;;;;;17.12;37.62;102210.25;5005253;28;98889;-71
2023/04/17 10:55:08;;;;;;;18.88;10.88;;;;;;;17.38;37.19;102200.31;5005385;28;98880;-70
2023/04/17 10:57:59;;;;;;;17.50;10.90;;;;;;;17.77;36.87;102204.03;4996406;28;96905;-72
2023/04/17 11:00:36;;;;;;;14.07;10.20;;;;;;;17.41;35.99;102197.50;4999910;28;96859;-71
2023/04/17 11:03:04;;;;;;;15.77;9.40;;;;;;;17.21;36.18;102198.31;4995887;28;99422;-73
2023/04/17 11:05:31;;;;;;;17.88;9.95;;;;;;;16.94;34.59;102205.59;4995929;28;99179;-72
2023/04/17 11:07:57;;;;;;;15.30;8.88;;;;;;;16.66;34.41;102200.47;5009684;28;98005;-70
2023/04/17 11:10:24;;;;;;;15.32;9.20;;;;;;;16.74;35.15;102202.84;4998098;28;97346;-71
2023/04/17 11:12:54;;;;;;;13.70;9.35;;;;;;;17.10;35.85;102212.09;4995707;28;99482;-71